sensor_id;sensor_type;location;lat;lon;timestamp;P1;durP1;ratioP1;P2;durP2;ratioP2
52057;SDS011;38063;53.210;6.504;2023-04-03T00:00:41;3.80;;;1.20;;
52057;SDS011;38063;53.210;6.504;2023-04-03T00:03:06;4.10;;;1.33;;
52057;SDS011;38063;53.210;6.504;2023-04-03T00:05:32;3.30;;;1.10;;
52057;SDS011;38063;53.210;6.504;2023-04-03T00:07:58;1.95;;;1.02;;
52057;SDS011;38063;53.210;6.504;2023-04-03T00:10:24;2.03;;;1.00;;
52057;SDS011;38063;53.210;6.504;2023-04-03T00:12:50;3.22;;;1.10;;
52057;SDS011;38063;53.210;6.504;2023-04-03T00:15:15;3.40;;;1.38;;
52057;SDS011;38063;53.210;6.504;2023-04-03T00:17:41;2.90;;;1.10;;
52057;SDS011;38063;53.210;6.504;2023-04-03T00:20:07;5.38;;;1.10;;
52057;SDS011;38063;53.210;6.504;2023-04-03T00:22:33;3.08;;;1.25;;
52057;SDS011;38063;53.210;6.504;2023-04-03T00:24:58;2.20;;;1.10;;
52057;SDS011;38063;53.210;6.504;2023-04-03T00:27:24;1.92;;;0.82;;
52057;SDS011;38063;53.210;6.504;2023-04-03T00:29:50;2.10;;;0.98;;
52057;SDS011;38063;53.210;6.504;2023-04-03T00:32:16;2.28;;;0.85;;
52057;SDS011;38063;53.210;6.504;2023-04-03T00:34:41;1.98;;;0.90;;
52057;SDS011;38063;53.210;6.504;2023-04-03T00:37:07;4.55;;;1.38;;
52057;SDS011;38063;53.210;6.504;2023-04-03T00:39:32;3.47;;;1.00;;
52057;SDS011;38063;53.210;6.504;2023-04-03T00:41:58;3.00;;;1.05;;
52057;SDS011;38063;53.210;6.504;2023-04-03T00:46:59;3.75;;;0.90;;
52057;SDS011;38063;53.210;6.504;2023-04-03T00:49:25;4.40;;;1.45;;
52057;SDS011;38063;53.210;6.504;2023-04-03T00:51:52;3.45;;;1.00;;
52057;SDS011;38063;53.210;6.504;2023-04-03T00:54:18;1.80;;;0.93;;
52057;SDS011;38063;53.210;6.504;2023-04-03T00:56:44;7.25;;;1.30;;
52057;SDS011;38063;53.210;6.504;2023-04-03T00:59:11;7.40;;;1.40;;
52057;SDS011;38063;53.210;6.504;2023-04-03T01:01:41;4.07;;;1.40;;
52057;SDS011;38063;53.210;6.504;2023-04-03T01:06:52;5.53;;;1.20;;
52057;SDS011;38063;53.210;6.504;2023-04-03T01:09:17;3.78;;;0.93;;
52057;SDS011;38063;53.210;6.504;2023-04-03T01:11:43;2.63;;;1.27;;
52057;SDS011;38063;53.210;6.504;2023-04-03T01:14:08;2.90;;;1.00;;
52057;SDS011;38063;53.210;6.504;2023-04-03T01:16:34;6.65;;;1.25;;
52057;SDS011;38063;53.210;6.504;2023-04-03T01:19:00;1.30;;;0.85;;
52057;SDS011;38063;53.210;6.504;2023-04-03T01:24:36;7.72;;;1.85;;
52057;SDS011;38063;53.210;6.504;2023-04-03T01:27:05;3.08;;;1.40;;
52057;SDS011;38063;53.210;6.504;2023-04-03T01:29:32;3.50;;;1.13;;
52057;SDS011;38063;53.210;6.504;2023-04-03T01:31:58;6.70;;;1.30;;
52057;SDS011;38063;53.210;6.504;2023-04-03T01:34:26;6.07;;;1.48;;
52057;SDS011;38063;53.210;6.504;2023-04-03T01:36:53;4.65;;;1.17;;
52057;SDS011;38063;53.210;6.504;2023-04-03T01:39:19;3.33;;;1.08;;
52057;SDS011;38063;53.210;6.504;2023-04-03T01:41:46;8.40;;;1.23;;
52057;SDS011;38063;53.210;6.504;2023-04-03T01:44:12;5.15;;;1.50;;
52057;SDS011;38063;53.210;6.504;2023-04-03T01:46:38;4.82;;;1.33;;
52057;SDS011;38063;53.210;6.504;2023-04-03T01:49:04;4.13;;;1.23;;
52057;SDS011;38063;53.210;6.504;2023-04-03T01:51:30;5.20;;;1.50;;
52057;SDS011;38063;53.210;6.504;2023-04-03T01:53:56;5.15;;;1.48;;
52057;SDS011;38063;53.210;6.504;2023-04-03T01:56:21;3.70;;;1.45;;
52057;SDS011;38063;53.210;6.504;2023-04-03T01:58:47;2.97;;;1.67;;
52057;SDS011;38063;53.210;6.504;2023-04-03T02:01:13;5.50;;;1.30;;
52057;SDS011;38063;53.210;6.504;2023-04-03T02:03:40;5.85;;;1.60;;
52057;SDS011;38063;53.210;6.504;2023-04-03T02:06:05;4.80;;;1.20;;
52057;SDS011;38063;53.210;6.504;2023-04-03T02:08:31;3.67;;;1.00;;
52057;SDS011;38063;53.210;6.504;2023-04-03T02:10:57;6.40;;;1.38;;
52057;SDS011;38063;53.210;6.504;2023-04-03T02:13:23;4.00;;;1.33;;
52057;SDS011;38063;53.210;6.504;2023-04-03T02:15:48;2.35;;;1.00;;
52057;SDS011;38063;53.210;6.504;2023-04-03T02:18:14;5.43;;;1.52;;
52057;SDS011;38063;53.210;6.504;2023-04-03T02:20:40;4.78;;;1.52;;
52057;SDS011;38063;53.210;6.504;2023-04-03T02:23:05;3.60;;;1.42;;
52057;SDS011;38063;53.210;6.504;2023-04-03T02:25:31;4.70;;;1.55;;
52057;SDS011;38063;53.210;6.504;2023-04-03T02:27:57;3.40;;;1.42;;
52057;SDS011;38063;53.210;6.504;2023-04-03T02:30:23;5.82;;;1.60;;
52057;SDS011;38063;53.210;6.504;2023-04-03T02:32:49;4.38;;;1.35;;
52057;SDS011;38063;53.210;6.504;2023-04-03T02:35:15;7.43;;;1.88;;
52057;SDS011;38063;53.210;6.504;2023-04-03T02:37:40;7.28;;;1.63;;
52057;SDS011;38063;53.210;6.504;2023-04-03T02:40:06;5.53;;;1.50;;
52057;SDS011;38063;53.210;6.504;2023-04-03T02:42:33;6.38;;;1.77;;
52057;SDS011;38063;53.210;6.504;2023-04-03T02:44:58;4.30;;;1.60;;
52057;SDS011;38063;53.210;6.504;2023-04-03T02:47:25;4.30;;;1.60;;
52057;SDS011;38063;53.210;6.504;2023-04-03T02:49:52;5.88;;;1.88;;
52057;SDS011;38063;53.210;6.504;2023-04-03T02:52:18;5.53;;;1.50;;
52057;SDS011;38063;53.210;6.504;2023-04-03T02:54:43;2.80;;;1.40;;
52057;SDS011;38063;53.210;6.504;2023-04-03T02:57:09;4.50;;;1.80;;
52057;SDS011;38063;53.210;6.504;2023-04-03T02:59:36;5.88;;;1.50;;
52057;SDS011;38063;53.210;6.504;2023-04-03T03:02:01;6.10;;;1.50;;
52057;SDS011;38063;53.210;6.504;2023-04-03T03:04:27;3.70;;;1.60;;
52057;SDS011;38063;53.210;6.504;2023-04-03T03:06:53;2.80;;;1.48;;
52057;SDS011;38063;53.210;6.504;2023-04-03T03:09:18;4.28;;;1.30;;
52057;SDS011;38063;53.210;6.504;2023-04-03T03:11:44;5.45;;;1.73;;
52057;SDS011;38063;53.210;6.504;2023-04-03T03:14:10;4.90;;;1.52;;
52057;SDS011;38063;53.210;6.504;2023-04-03T03:16:36;6.10;;;1.92;;
52057;SDS011;38063;53.210;6.504;2023-04-03T03:19:01;5.18;;;1.52;;
52057;SDS011;38063;53.210;6.504;2023-04-03T03:21:27;3.38;;;1.52;;
52057;SDS011;38063;53.210;6.504;2023-04-03T03:23:53;6.03;;;1.88;;
52057;SDS011;38063;53.210;6.504;2023-04-03T03:26:19;3.33;;;1.38;;
52057;SDS011;38063;53.210;6.504;2023-04-03T03:28:44;4.25;;;1.60;;
52057;SDS011;38063;53.210;6.504;2023-04-03T03:31:10;7.10;;;2.15;;
52057;SDS011;38063;53.210;6.504;2023-04-03T03:33:37;7.85;;;1.48;;
52057;SDS011;38063;53.210;6.504;2023-04-03T03:36:03;5.97;;;1.85;;
52057;SDS011;38063;53.210;6.504;2023-04-03T03:38:29;9.50;;;2.00;;
52057;SDS011;38063;53.210;6.504;2023-04-03T03:40:54;4.32;;;1.40;;
52057;SDS011;38063;53.210;6.504;2023-04-03T03:43:20;7.45;;;1.70;;
52057;SDS011;38063;53.210;6.504;2023-04-03T03:45:49;5.85;;;1.50;;
52057;SDS011;38063;53.210;6.504;2023-04-03T03:48:16;5.95;;;1.92;;
52057;SDS011;38063;53.210;6.504;2023-04-03T03:50:42;4.65;;;1.83;;
52057;SDS011;38063;53.210;6.504;2023-04-03T03:53:07;5.60;;;1.70;;
52057;SDS011;38063;53.210;6.504;2023-04-03T03:55:33;7.32;;;1.98;;
52057;SDS011;38063;53.210;6.504;2023-04-03T03:57:59;7.65;;;2.13;;
52057;SDS011;38063;53.210;6.504;2023-04-03T04:00:26;9.82;;;2.35;;
52057;SDS011;38063;53.210;6.504;2023-04-03T04:02:52;4.80;;;1.90;;
52057;SDS011;38063;53.210;6.504;2023-04-03T04:05:18;7.03;;;1.60;;
52057;SDS011;38063;53.210;6.504;2023-04-03T04:07:43;8.57;;;2.30;;
52057;SDS011;38063;53.210;6.504;2023-04-03T04:10:09;6.70;;;1.65;;
52057;SDS011;38063;53.210;6.504;2023-04-03T04:12:35;7.20;;;2.00;;
52057;SDS011;38063;53.210;6.504;2023-04-03T04:15:01;5.53;;;1.85;;
52057;SDS011;38063;53.210;6.504;2023-04-03T04:17:30;6.20;;;2.17;;
52057;SDS011;38063;53.210;6.504;2023-04-03T04:19:56;6.13;;;2.30;;
52057;SDS011;38063;53.210;6.504;2023-04-03T04:22:21;6.47;;;2.53;;
52057;SDS011;38063;53.210;6.504;2023-04-03T04:24:47;7.35;;;2.10;;
52057;SDS011;38063;53.210;6.504;2023-04-03T04:27:13;9.00;;;2.10;;
52057;SDS011;38063;53.210;6.504;2023-04-03T04:29:38;8.65;;;2.40;;
52057;SDS011;38063;53.210;6.504;2023-04-03T04:32:04;4.88;;;1.88;;
52057;SDS011;38063;53.210;6.504;2023-04-03T04:34:30;6.25;;;1.83;;
52057;SDS011;38063;53.210;6.504;2023-04-03T04:36:56;11.00;;;2.00;;
52057;SDS011;38063;53.210;6.504;2023-04-03T04:39:22;7.53;;;2.33;;
52057;SDS011;38063;53.210;6.504;2023-04-03T04:41:47;7.30;;;1.85;;
52057;SDS011;38063;53.210;6.504;2023-04-03T04:44:13;6.22;;;2.05;;
52057;SDS011;38063;53.210;6.504;2023-04-03T04:46:38;6.88;;;1.80;;
52057;SDS011;38063;53.210;6.504;2023-04-03T04:49:04;5.07;;;1.80;;
52057;SDS011;38063;53.210;6.504;2023-04-03T04:51:30;7.45;;;2.10;;
52057;SDS011;38063;53.210;6.504;2023-04-03T04:53:56;5.10;;;2.03;;
52057;SDS011;38063;53.210;6.504;2023-04-03T04:56:21;9.48;;;2.90;;
52057;SDS011;38063;53.210;6.504;2023-04-03T04:58:47;5.70;;;2.08;;
52057;SDS011;38063;53.210;6.504;2023-04-03T05:01:13;6.95;;;2.30;;
52057;SDS011;38063;53.210;6.504;2023-04-03T05:03:38;4.97;;;2.20;;
52057;SDS011;38063;53.210;6.504;2023-04-03T05:06:04;6.55;;;2.47;;
52057;SDS011;38063;53.210;6.504;2023-04-03T05:08:30;5.47;;;2.50;;
52057;SDS011;38063;53.210;6.504;2023-04-03T05:10:56;9.80;;;2.50;;
52057;SDS011;38063;53.210;6.504;2023-04-03T05:13:22;7.85;;;2.08;;
52057;SDS011;38063;53.210;6.504;2023-04-03T05:15:48;7.93;;;2.67;;
52057;SDS011;38063;53.210;6.504;2023-04-03T05:18:13;6.72;;;2.05;;
52057;SDS011;38063;53.210;6.504;2023-04-03T05:20:39;7.82;;;2.42;;
52057;SDS011;38063;53.210;6.504;2023-04-03T05:23:05;8.95;;;3.17;;
52057;SDS011;38063;53.210;6.504;2023-04-03T05:25:31;4.75;;;2.70;;
52057;SDS011;38063;53.210;6.504;2023-04-03T05:27:57;8.32;;;2.47;;
52057;SDS011;38063;53.210;6.504;2023-04-03T05:30:22;11.18;;;2.70;;
52057;SDS011;38063;53.210;6.504;2023-04-03T05:32:48;8.10;;;2.47;;
52057;SDS011;38063;53.210;6.504;2023-04-03T05:35:14;7.30;;;2.95;;
52057;SDS011;38063;53.210;6.504;2023-04-03T05:37:40;11.15;;;3.00;;
52057;SDS011;38063;53.210;6.504;2023-04-03T05:40:06;7.90;;;2.70;;
52057;SDS011;38063;53.210;6.504;2023-04-03T05:42:33;7.03;;;3.40;;
52057;SDS011;38063;53.210;6.504;2023-04-03T05:44:59;8.38;;;2.70;;
52057;SDS011;38063;53.210;6.504;2023-04-03T05:47:25;5.40;;;2.30;;
52057;SDS011;38063;53.210;6.504;2023-04-03T05:49:50;8.98;;;2.33;;
52057;SDS011;38063;53.210;6.504;2023-04-03T05:52:26;8.05;;;2.50;;
52057;SDS011;38063;53.210;6.504;2023-04-03T05:54:54;9.30;;;2.53;;
52057;SDS011;38063;53.210;6.504;2023-04-03T05:57:20;6.30;;;2.50;;
52057;SDS011;38063;53.210;6.504;2023-04-03T05:59:46;6.80;;;2.28;;
52057;SDS011;38063;53.210;6.504;2023-04-03T06:02:12;5.57;;;1.83;;
52057;SDS011;38063;53.210;6.504;2023-04-03T06:04:43;5.88;;;2.13;;
52057;SDS011;38063;53.210;6.504;2023-04-03T06:07:16;4.70;;;2.03;;
52057;SDS011;38063;53.210;6.504;2023-04-03T06:09:52;5.10;;;2.10;;
52057;SDS011;38063;53.210;6.504;2023-04-03T06:12:18;5.95;;;2.10;;
52057;SDS011;38063;53.210;6.504;2023-04-03T06:14:44;8.15;;;2.35;;
52057;SDS011;38063;53.210;6.504;2023-04-03T06:17:09;9.13;;;2.70;;
52057;SDS011;38063;53.210;6.504;2023-04-03T06:19:37;4.25;;;2.28;;
52057;SDS011;38063;53.210;6.504;2023-04-03T06:22:03;5.38;;;1.90;;
52057;SDS011;38063;53.210;6.504;2023-04-03T06:24:29;8.07;;;2.38;;
52057;SDS011;38063;53.210;6.504;2023-04-03T06:26:55;8.35;;;2.20;;
52057;SDS011;38063;53.210;6.504;2023-04-03T06:29:22;12.65;;;3.35;;
52057;SDS011;38063;53.210;6.504;2023-04-03T06:31:48;7.57;;;2.63;;
52057;SDS011;38063;53.210;6.504;2023-04-03T06:34:15;4.25;;;2.47;;
52057;SDS011;38063;53.210;6.504;2023-04-03T06:36:42;9.60;;;2.38;;
52057;SDS011;38063;53.210;6.504;2023-04-03T06:39:08;6.13;;;2.25;;
52057;SDS011;38063;53.210;6.504;2023-04-03T06:41:42;9.73;;;2.15;;
52057;SDS011;38063;53.210;6.504;2023-04-03T06:44:08;8.23;;;1.95;;
52057;SDS011;38063;53.210;6.504;2023-04-03T06:46:36;9.40;;;3.00;;
52057;SDS011;38063;53.210;6.504;2023-04-03T06:49:03;8.35;;;2.10;;
52057;SDS011;38063;53.210;6.504;2023-04-03T06:51:29;7.80;;;2.05;;
52057;SDS011;38063;53.210;6.504;2023-04-03T06:53:56;11.50;;;2.10;;
52057;SDS011;38063;53.210;6.504;2023-04-03T06:56:24;4.15;;;1.90;;
52057;SDS011;38063;53.210;6.504;2023-04-03T06:58:51;11.05;;;2.60;;
52057;SDS011;38063;53.210;6.504;2023-04-03T07:01:20;5.40;;;2.17;;
52057;SDS011;38063;53.210;6.504;2023-04-03T07:03:47;8.63;;;2.40;;
52057;SDS011;38063;53.210;6.504;2023-04-03T07:06:13;8.25;;;2.47;;
52057;SDS011;38063;53.210;6.504;2023-04-03T07:08:40;10.32;;;2.30;;
52057;SDS011;38063;53.210;6.504;2023-04-03T07:11:07;8.45;;;2.20;;
52057;SDS011;38063;53.210;6.504;2023-04-03T07:13:33;10.23;;;2.20;;
52057;SDS011;38063;53.210;6.504;2023-04-03T07:16:00;9.55;;;2.13;;
52057;SDS011;38063;53.210;6.504;2023-04-03T07:18:26;7.22;;;2.05;;
52057;SDS011;38063;53.210;6.504;2023-04-03T07:20:52;6.18;;;2.22;;
52057;SDS011;38063;53.210;6.504;2023-04-03T07:23:18;6.07;;;2.08;;
52057;SDS011;38063;53.210;6.504;2023-04-03T07:25:47;7.53;;;2.30;;
52057;SDS011;38063;53.210;6.504;2023-04-03T07:28:14;5.90;;;1.90;;
52057;SDS011;38063;53.210;6.504;2023-04-03T07:30:44;4.20;;;1.85;;
52057;SDS011;38063;53.210;6.504;2023-04-03T07:33:11;8.48;;;2.00;;
52057;SDS011;38063;53.210;6.504;2023-04-03T07:35:38;4.75;;;2.22;;
52057;SDS011;38063;53.210;6.504;2023-04-03T07:38:04;7.15;;;2.00;;
52057;SDS011;38063;53.210;6.504;2023-04-03T07:40:30;7.32;;;1.95;;
52057;SDS011;38063;53.210;6.504;2023-04-03T07:42:56;8.35;;;2.90;;
52057;SDS011;38063;53.210;6.504;2023-04-03T07:45:22;6.53;;;1.92;;
52057;SDS011;38063;53.210;6.504;2023-04-03T07:47:48;10.05;;;2.42;;
52057;SDS011;38063;53.210;6.504;2023-04-03T07:50:14;4.63;;;2.25;;
52057;SDS011;38063;53.210;6.504;2023-04-03T07:52:40;8.05;;;2.17;;
52057;SDS011;38063;53.210;6.504;2023-04-03T07:55:07;7.72;;;2.08;;
52057;SDS011;38063;53.210;6.504;2023-04-03T07:57:33;5.53;;;2.22;;
52057;SDS011;38063;53.210;6.504;2023-04-03T07:59:59;10.77;;;2.45;;
52057;SDS011;38063;53.210;6.504;2023-04-03T08:02:25;5.57;;;1.92;;
52057;SDS011;38063;53.210;6.504;2023-04-03T08:04:50;5.55;;;1.85;;
52057;SDS011;38063;53.210;6.504;2023-04-03T08:07:16;5.82;;;2.40;;
52057;SDS011;38063;53.210;6.504;2023-04-03T08:09:41;5.03;;;1.90;;
52057;SDS011;38063;53.210;6.504;2023-04-03T08:12:07;7.82;;;2.13;;
52057;SDS011;38063;53.210;6.504;2023-04-03T08:14:33;5.88;;;2.13;;
52057;SDS011;38063;53.210;6.504;2023-04-03T08:17:02;6.28;;;2.10;;
52057;SDS011;38063;53.210;6.504;2023-04-03T08:19:29;5.70;;;1.73;;
52057;SDS011;38063;53.210;6.504;2023-04-03T08:21:56;7.57;;;1.90;;
52057;SDS011;38063;53.210;6.504;2023-04-03T08:24:23;8.30;;;2.58;;
52057;SDS011;38063;53.210;6.504;2023-04-03T08:26:49;7.38;;;1.83;;
52057;SDS011;38063;53.210;6.504;2023-04-03T08:29:15;4.40;;;2.13;;
52057;SDS011;38063;53.210;6.504;2023-04-03T08:31:41;4.25;;;1.75;;
52057;SDS011;38063;53.210;6.504;2023-04-03T08:34:06;5.85;;;2.22;;
52057;SDS011;38063;53.210;6.504;2023-04-03T08:36:33;5.45;;;1.52;;
52057;SDS011;38063;53.210;6.504;2023-04-03T08:38:59;7.50;;;1.88;;
52057;SDS011;38063;53.210;6.504;2023-04-03T08:41:33;5.55;;;1.70;;
52057;SDS011;38063;53.210;6.504;2023-04-03T08:45:01;4.85;;;1.63;;
52057;SDS011;38063;53.210;6.504;2023-04-03T08:50:04;1.77;;;1.10;;
52057;SDS011;38063;53.210;6.504;2023-04-03T08:58:00;4.50;;;1.00;;
52057;SDS011;38063;53.210;6.504;2023-04-03T09:02:55;4.90;;;1.20;;
52057;SDS011;38063;53.210;6.504;2023-04-03T09:08:14;2.42;;;0.90;;
52057;SDS011;38063;53.210;6.504;2023-04-03T09:10:43;2.70;;;1.15;;
52057;SDS011;38063;53.210;6.504;2023-04-03T09:15:52;4.20;;;0.95;;
52057;SDS011;38063;53.210;6.504;2023-04-03T09:18:20;3.10;;;1.05;;
52057;SDS011;38063;53.210;6.504;2023-04-03T09:24:06;1.10;;;0.90;;
52057;SDS011;38063;53.210;6.504;2023-04-03T09:26:28;3.10;;;1.00;;
52057;SDS011;38063;53.210;6.504;2023-04-03T09:29:00;3.17;;;1.15;;
52057;SDS011;38063;53.210;6.504;2023-04-03T09:31:35;3.40;;;1.20;;
52057;SDS011;38063;53.210;6.504;2023-04-03T09:34:05;2.85;;;1.30;;
52057;SDS011;38063;53.210;6.504;2023-04-03T09:39:17;4.07;;;1.27;;
52057;SDS011;38063;53.210;6.504;2023-04-03T09:42:04;4.87;;;1.50;;
52057;SDS011;38063;53.210;6.504;2023-04-03T09:44:40;3.88;;;1.42;;
52057;SDS011;38063;53.210;6.504;2023-04-03T09:47:19;2.95;;;1.52;;
52057;SDS011;38063;53.210;6.504;2023-04-03T09:49:50;3.78;;;0.98;;
52057;SDS011;38063;53.210;6.504;2023-04-03T09:52:20;2.22;;;0.90;;
52057;SDS011;38063;53.210;6.504;2023-04-03T09:54:49;2.38;;;0.93;;
52057;SDS011;38063;53.210;6.504;2023-04-03T09:57:15;3.65;;;1.25;;
52057;SDS011;38063;53.210;6.504;2023-04-03T09:59:47;2.58;;;1.48;;
52057;SDS011;38063;53.210;6.504;2023-04-03T10:02:35;4.10;;;1.40;;
52057;SDS011;38063;53.210;6.504;2023-04-03T10:05:02;2.95;;;1.30;;
52057;SDS011;38063;53.210;6.504;2023-04-03T10:07:34;5.53;;;1.73;;
52057;SDS011;38063;53.210;6.504;2023-04-03T10:12:39;3.22;;;1.40;;
52057;SDS011;38063;53.210;6.504;2023-04-03T10:15:15;2.22;;;1.30;;
52057;SDS011;38063;53.210;6.504;2023-04-03T10:17:49;1.90;;;1.30;;
52057;SDS011;38063;53.210;6.504;2023-04-03T10:26:09;3.83;;;1.20;;
52057;SDS011;38063;53.210;6.504;2023-04-03T10:31:22;2.13;;;0.90;;
52057;SDS011;38063;53.210;6.504;2023-04-03T10:34:08;4.30;;;1.38;;
52057;SDS011;38063;53.210;6.504;2023-04-03T10:36:58;2.95;;;1.10;;
52057;SDS011;38063;53.210;6.504;2023-04-03T10:47:58;2.65;;;1.00;;
52057;SDS011;38063;53.210;6.504;2023-04-03T10:56:30;3.65;;;1.00;;
52057;SDS011;38063;53.210;6.504;2023-04-03T10:59:15;5.05;;;1.40;;
52057;SDS011;38063;53.210;6.504;2023-04-03T11:01:48;2.40;;;0.80;;
52057;SDS011;38063;53.210;6.504;2023-04-03T11:04:21;2.28;;;0.90;;
52057;SDS011;38063;53.210;6.504;2023-04-03T11:07:00;2.47;;;0.90;;
52057;SDS011;38063;53.210;6.504;2023-04-03T11:09:33;3.08;;;0.80;;
52057;SDS011;38063;53.210;6.504;2023-04-03T11:12:46;1.42;;;0.80;;
52057;SDS011;38063;53.210;6.504;2023-04-03T11:14:58;2.75;;;0.90;;
52057;SDS011;38063;53.210;6.504;2023-04-03T11:17:28;1.98;;;0.85;;
52057;SDS011;38063;53.210;6.504;2023-04-03T11:22:43;2.60;;;1.00;;
52057;SDS011;38063;53.210;6.504;2023-04-03T11:25:15;2.30;;;0.65;;
52057;SDS011;38063;53.210;6.504;2023-04-03T11:27:56;4.05;;;1.05;;
52057;SDS011;38063;53.210;6.504;2023-04-03T11:30:32;2.20;;;1.00;;
52057;SDS011;38063;53.210;6.504;2023-04-03T11:36:39;2.22;;;1.08;;
52057;SDS011;38063;53.210;6.504;2023-04-03T11:38:51;1.98;;;0.82;;
52057;SDS011;38063;53.210;6.504;2023-04-03T11:41:24;1.63;;;0.90;;
52057;SDS011;38063;53.210;6.504;2023-04-03T11:44:00;3.85;;;0.88;;
52057;SDS011;38063;53.210;6.504;2023-04-03T11:46:48;1.67;;;0.73;;
52057;SDS011;38063;53.210;6.504;2023-04-03T11:57:46;2.08;;;1.05;;
52057;SDS011;38063;53.210;6.504;2023-04-03T12:05:56;1.65;;;0.85;;
52057;SDS011;38063;53.210;6.504;2023-04-03T12:19:02;3.83;;;1.02;;
52057;SDS011;38063;53.210;6.504;2023-04-03T12:38:10;2.47;;;1.00;;
52057;SDS011;38063;53.210;6.504;2023-04-03T12:40:57;1.95;;;0.80;;
52057;SDS011;38063;53.210;6.504;2023-04-03T12:46:28;3.13;;;1.00;;
52057;SDS011;38063;53.210;6.504;2023-04-03T12:49:22;2.10;;;1.02;;
52057;SDS011;38063;53.210;6.504;2023-04-03T12:54:53;3.00;;;0.90;;
52057;SDS011;38063;53.210;6.504;2023-04-03T12:57:21;2.35;;;1.00;;
52057;SDS011;38063;53.210;6.504;2023-04-03T12:59:50;2.80;;;0.90;;
52057;SDS011;38063;53.210;6.504;2023-04-03T13:02:23;2.38;;;1.02;;
52057;SDS011;38063;53.210;6.504;2023-04-03T13:04:59;2.67;;;0.88;;
52057;SDS011;38063;53.210;6.504;2023-04-03T13:07:36;3.50;;;0.77;;
52057;SDS011;38063;53.210;6.504;2023-04-03T13:12:33;4.30;;;1.00;;
52057;SDS011;38063;53.210;6.504;2023-04-03T13:15:41;3.17;;;0.90;;
52057;SDS011;38063;53.210;6.504;2023-04-03T13:18:20;2.67;;;0.70;;
52057;SDS011;38063;53.210;6.504;2023-04-03T13:20:48;2.88;;;0.90;;
52057;SDS011;38063;53.210;6.504;2023-04-03T13:23:14;1.63;;;0.75;;
52057;SDS011;38063;53.210;6.504;2023-04-03T13:25:45;2.15;;;0.80;;
52057;SDS011;38063;53.210;6.504;2023-04-03T13:28:13;1.05;;;0.60;;
52057;SDS011;38063;53.210;6.504;2023-04-03T13:30:56;3.60;;;1.02;;
52057;SDS011;38063;53.210;6.504;2023-04-03T13:33:29;3.22;;;0.68;;
52057;SDS011;38063;53.210;6.504;2023-04-03T13:36:19;3.63;;;1.00;;
52057;SDS011;38063;53.210;6.504;2023-04-03T13:38:45;5.65;;;1.20;;
52057;SDS011;38063;53.210;6.504;2023-04-03T13:41:24;1.73;;;0.70;;
52057;SDS011;38063;53.210;6.504;2023-04-03T13:46:49;3.85;;;0.88;;
52057;SDS011;38063;53.210;6.504;2023-04-03T13:49:34;2.80;;;1.00;;
52057;SDS011;38063;53.210;6.504;2023-04-03T13:54:47;2.97;;;1.02;;
52057;SDS011;38063;53.210;6.504;2023-04-03T13:57:19;2.88;;;0.90;;
52057;SDS011;38063;53.210;6.504;2023-04-03T13:59:45;1.80;;;0.90;;
52057;SDS011;38063;53.210;6.504;2023-04-03T14:02:16;3.80;;;1.15;;
52057;SDS011;38063;53.210;6.504;2023-04-03T14:05:03;3.88;;;1.00;;
52057;SDS011;38063;53.210;6.504;2023-04-03T14:07:30;2.85;;;1.33;;
52057;SDS011;38063;53.210;6.504;2023-04-03T14:09:56;2.92;;;1.10;;
52057;SDS011;38063;53.210;6.504;2023-04-03T14:12:38;2.80;;;1.30;;
52057;SDS011;38063;53.210;6.504;2023-04-03T14:17:43;2.45;;;1.08;;
52057;SDS011;38063;53.210;6.504;2023-04-03T14:20:16;3.08;;;1.13;;
52057;SDS011;38063;53.210;6.504;2023-04-03T14:22:44;4.82;;;1.02;;
52057;SDS011;38063;53.210;6.504;2023-04-03T14:25:10;3.42;;;1.08;;
52057;SDS011;38063;53.210;6.504;2023-04-03T14:27:37;5.25;;;1.35;;
52057;SDS011;38063;53.210;6.504;2023-04-03T14:30:09;2.70;;;1.17;;
52057;SDS011;38063;53.210;6.504;2023-04-03T14:32:44;2.40;;;1.00;;
52057;SDS011;38063;53.210;6.504;2023-04-03T14:35:10;2.20;;;1.00;;
52057;SDS011;38063;53.210;6.504;2023-04-03T14:37:36;3.88;;;1.00;;
52057;SDS011;38063;53.210;6.504;2023-04-03T14:40:02;2.38;;;1.05;;
52057;SDS011;38063;53.210;6.504;2023-04-03T14:42:30;2.92;;;1.10;;
52057;SDS011;38063;53.210;6.504;2023-04-03T14:44:59;2.53;;;1.02;;
52057;SDS011;38063;53.210;6.504;2023-04-03T14:47:27;3.70;;;1.27;;
52057;SDS011;38063;53.210;6.504;2023-04-03T14:49:54;4.47;;;1.10;;
52057;SDS011;38063;53.210;6.504;2023-04-03T14:52:22;3.03;;;1.00;;
52057;SDS011;38063;53.210;6.504;2023-04-03T14:54:53;3.40;;;0.93;;
52057;SDS011;38063;53.210;6.504;2023-04-03T14:57:20;4.80;;;1.17;;
52057;SDS011;38063;53.210;6.504;2023-04-03T14:59:49;3.53;;;1.30;;
52057;SDS011;38063;53.210;6.504;2023-04-03T15:02:31;3.30;;;1.10;;
52057;SDS011;38063;53.210;6.504;2023-04-03T15:04:59;2.60;;;1.02;;
52057;SDS011;38063;53.210;6.504;2023-04-03T15:07:28;2.13;;;0.90;;
52057;SDS011;38063;53.210;6.504;2023-04-03T15:09:58;2.92;;;1.00;;
52057;SDS011;38063;53.210;6.504;2023-04-03T15:12:26;2.60;;;1.10;;
52057;SDS011;38063;53.210;6.504;2023-04-03T15:14:52;4.60;;;1.27;;
52057;SDS011;38063;53.210;6.504;2023-04-03T15:17:19;7.38;;;1.00;;
52057;SDS011;38063;53.210;6.504;2023-04-03T15:19:47;3.55;;;1.00;;
52057;SDS011;38063;53.210;6.504;2023-04-03T15:22:14;3.28;;;1.10;;
52057;SDS011;38063;53.210;6.504;2023-04-03T15:24:41;2.50;;;0.82;;
52057;SDS011;38063;53.210;6.504;2023-04-03T15:27:08;1.27;;;0.70;;
52057;SDS011;38063;53.210;6.504;2023-04-03T15:29:34;3.22;;;1.13;;
52057;SDS011;38063;53.210;6.504;2023-04-03T15:32:01;4.55;;;1.20;;
52057;SDS011;38063;53.210;6.504;2023-04-03T15:34:27;3.22;;;1.10;;
52057;SDS011;38063;53.210;6.504;2023-04-03T15:36:53;4.97;;;1.13;;
52057;SDS011;38063;53.210;6.504;2023-04-03T15:39:19;2.45;;;1.05;;
52057;SDS011;38063;53.210;6.504;2023-04-03T15:41:45;2.75;;;1.00;;
52057;SDS011;38063;53.210;6.504;2023-04-03T15:44:11;2.35;;;0.80;;
52057;SDS011;38063;53.210;6.504;2023-04-03T15:46:38;3.80;;;0.95;;
52057;SDS011;38063;53.210;6.504;2023-04-03T15:49:04;2.22;;;0.80;;
52057;SDS011;38063;53.210;6.504;2023-04-03T15:51:30;1.20;;;0.60;;
52057;SDS011;38063;53.210;6.504;2023-04-03T15:53:56;3.05;;;0.75;;
52057;SDS011;38063;53.210;6.504;2023-04-03T15:56:22;3.38;;;0.80;;
52057;SDS011;38063;53.210;6.504;2023-04-03T15:58:48;1.75;;;0.85;;
52057;SDS011;38063;53.210;6.504;2023-04-03T16:01:13;2.10;;;0.85;;
52057;SDS011;38063;53.210;6.504;2023-04-03T16:03:40;2.88;;;0.80;;
52057;SDS011;38063;53.210;6.504;2023-04-03T16:06:14;2.72;;;1.13;;
52057;SDS011;38063;53.210;6.504;2023-04-03T16:08:41;3.97;;;1.23;;
52057;SDS011;38063;53.210;6.504;2023-04-03T16:11:07;5.15;;;1.25;;
52057;SDS011;38063;53.210;6.504;2023-04-03T16:13:33;2.67;;;0.90;;
52057;SDS011;38063;53.210;6.504;2023-04-03T16:16:01;3.17;;;1.30;;
52057;SDS011;38063;53.210;6.504;2023-04-03T16:18:29;2.35;;;0.95;;
52057;SDS011;38063;53.210;6.504;2023-04-03T16:20:55;2.70;;;1.00;;
52057;SDS011;38063;53.210;6.504;2023-04-03T16:23:21;3.05;;;1.00;;
52057;SDS011;38063;53.210;6.504;2023-04-03T16:25:47;4.18;;;2.08;;
52057;SDS011;38063;53.210;6.504;2023-04-03T16:28:15;2.00;;;0.95;;
52057;SDS011;38063;53.210;6.504;2023-04-03T16:30:43;3.72;;;0.90;;
52057;SDS011;38063;53.210;6.504;2023-04-03T16:33:10;2.50;;;0.90;;
52057;SDS011;38063;53.210;6.504;2023-04-03T16:35:37;2.70;;;0.90;;
52057;SDS011;38063;53.210;6.504;2023-04-03T16:38:02;4.32;;;1.25;;
52057;SDS011;38063;53.210;6.504;2023-04-03T16:40:28;3.17;;;0.80;;
52057;SDS011;38063;53.210;6.504;2023-04-03T16:42:54;4.43;;;0.90;;
52057;SDS011;38063;53.210;6.504;2023-04-03T16:45:20;1.50;;;0.80;;
52057;SDS011;38063;53.210;6.504;2023-04-03T16:47:45;3.13;;;1.00;;
52057;SDS011;38063;53.210;6.504;2023-04-03T16:50:11;3.15;;;1.20;;
52057;SDS011;38063;53.210;6.504;2023-04-03T16:52:37;3.78;;;1.20;;
52057;SDS011;38063;53.210;6.504;2023-04-03T16:55:03;2.85;;;1.17;;